Terminal Aerodrome Forecast
Issued by NWS

Home | Current Version | Previous Version | Text Only | Print | Product List | Glossary Off
Versions: 1 2 3 4 5 6 7 8 9 10 11 12 13 14 15 16

705
FTUS43 KIWX 242125 AAA
TAFSBN
TAF AMD
KSBN 242125Z 2421/2518 21013G20KT P6SM VCSH SCT025 BKN050
      TEMPO 2422/2424 6SM -SHRA OVC025
     FM250000 23010KT P6SM OVC025
     FM250930 25014G20KT 3SM -SHSN OVC015
     FM251500 28015G23KT 5SM -SHSN OVC025=

USA.gov is the U.S. government's official web portal to all federal, state and local government web resources and services.